Time;durP1;ratioP1;P1;durP2;ratioP2;P2;SDS_P1;SDS_P2;PMS_P1;PMS_P2;Temp;Humidity;BMP_temperature;BMP_pressure;BME280_temperature;BME280_humidity;BME280_pressure;Samples;Min_cycle;Max_cycle;Signal;HPM_P1;HPM_P2
2022/11/21 00:00:40;;;;;;;10.05;7.95;;;5.20;81.60;;;;;;5001320;28;20058;-76
2022/11/21 00:03:06;;;;;;;10.90;6.82;;;5.10;81.60;;;;;;4996060;28;20039;-76
2022/11/21 00:05:32;;;;;;;10.10;6.82;;;5.10;81.50;;;;;;5005609;28;20389;-80
2022/11/21 00:07:58;;;;;;;8.10;6.50;;;5.10;81.60;;;;;;4995193;28;20038;-76
2022/11/21 00:10:24;;;;;;;8.98;6.15;;;5.10;81.60;;;;;;5021181;28;20484;-80
2022/11/21 00:12:57;;;;;;;10.40;6.35;;;5.10;81.60;;;;;;4994938;28;20050;-77
2022/11/21 00:15:24;;;;;;;10.40;7.68;;;5.10;81.60;;;;;;4996076;28;20030;-77
2022/11/21 00:17:51;;;;;;;11.00;7.43;;;5.10;81.60;;;;;;4996338;28;20029;-76
2022/11/21 00:20:19;;;;;;;11.45;7.32;;;5.10;81.60;;;;;;5007438;28;20056;-75
2022/11/21 00:22:45;;;;;;;11.27;7.03;;;5.10;81.70;;;;;;5018032;28;20235;-73
2022/11/21 00:25:12;;;;;;;7.82;6.40;;;5.10;81.60;;;;;;4991516;28;20503;-73
2022/11/21 00:27:38;;;;;;;15.57;7.88;;;5.10;81.60;;;;;;5000916;28;20022;-73
2022/11/21 00:30:06;;;;;;;11.82;7.47;;;5.10;81.60;;;;;;5002732;28;20037;-73
2022/11/21 00:32:32;;;;;;;15.45;8.38;;;5.10;81.50;;;;;;4994693;28;20116;-74
2022/11/21 00:34:58;;;;;;;8.85;6.88;;;5.10;81.60;;;;;;5000792;28;20114;-74
2022/11/21 00:37:24;;;;;;;15.52;7.65;;;5.10;81.60;;;;;;5005861;28;20113;-74
2022/11/21 00:39:49;;;;;;;10.35;7.40;;;5.10;81.60;;;;;;4995296;28;20042;-74
2022/11/21 00:42:15;;;;;;;11.38;7.13;;;5.10;81.70;;;;;;4993644;28;20512;-73
2022/11/21 00:44:40;;;;;;;8.55;5.90;;;5.10;81.70;;;;;;4995108;28;20034;-73
2022/11/21 00:47:06;;;;;;;12.40;8.40;;;5.10;81.60;;;;;;4999180;28;20045;-73
2022/11/21 00:49:32;;;;;;;10.48;7.03;;;5.10;81.60;;;;;;4979945;28;20030;-73
2022/11/21 00:51:57;;;;;;;11.13;6.57;;;5.10;81.60;;;;;;4991197;28;20110;-73
2022/11/21 00:54:23;;;;;;;12.95;8.63;;;5.00;81.70;;;;;;4994473;28;20040;-73
2022/11/21 00:56:49;;;;;;;10.20;7.72;;;5.00;81.70;;;;;;5022399;28;20034;-74
2022/11/21 00:59:14;;;;;;;12.63;8.55;;;5.00;81.80;;;;;;4992915;28;20026;-74
2022/11/21 01:01:40;;;;;;;13.75;6.57;;;5.00;81.60;;;;;;4997554;28;20038;-73
2022/11/21 01:04:06;;;;;;;9.88;7.07;;;5.00;81.70;;;;;;5020145;28;20126;-74
2022/11/21 01:06:32;;;;;;;9.07;6.40;;;5.00;81.70;;;;;;5022712;28;20053;-74
2022/11/21 01:08:57;;;;;;;9.95;6.95;;;5.10;81.70;;;;;;4990124;28;20046;-73
2022/11/21 01:11:23;;;;;;;9.05;6.90;;;5.10;81.60;;;;;;5005293;28;20030;-73
2022/11/21 01:13:53;;;;;;;13.02;7.22;;;5.10;82.00;;;;;;5008688;28;20096;-73
2022/11/21 01:16:22;;;;;;;9.98;7.55;;;5.10;81.40;;;;;;4996150;28;20088;-74
2022/11/21 01:18:48;;;;;;;11.15;7.15;;;5.10;81.40;;;;;;4995735;28;20401;-74
2022/11/21 01:21:20;;;;;;;10.93;7.30;;;5.20;81.50;;;;;;4987500;28;20031;-74
2022/11/21 01:23:46;;;;;;;12.50;8.18;;;5.20;81.60;;;;;;5000289;28;20400;-74
2022/11/21 01:26:14;;;;;;;10.55;8.02;;;5.20;81.60;;;;;;5006598;28;20108;-74
2022/11/21 01:28:40;;;;;;;9.65;7.45;;;5.10;81.60;;;;;;5010813;28;20564;-74
2022/11/21 01:31:17;;;;;;;9.50;7.40;;;5.10;81.60;;;;;;4998522;28;20102;-74
2022/11/21 01:33:43;;;;;;;12.02;7.80;;;5.20;81.50;;;;;;4991134;28;20504;-76
2022/11/21 01:36:17;;;;;;;15.90;8.77;;;5.20;81.60;;;;;;4990710;28;20030;-76
2022/11/21 01:38:45;;;;;;;13.48;7.20;;;5.20;81.60;;;;;;4995329;28;20117;-76
2022/11/21 01:41:13;;;;;;;16.13;8.15;;;5.20;81.60;;;;;;5021743;28;20023;-76
2022/11/21 01:43:38;;;;;;;11.10;8.20;;;5.20;81.60;;;;;;4992706;28;20034;-75
2022/11/21 01:46:11;;;;;;;10.77;7.50;;;5.20;81.50;;;;;;4990101;28;20092;-75
2022/11/21 01:48:37;;;;;;;10.05;7.50;;;5.20;81.50;;;;;;4995582;28;20463;-75
2022/11/21 01:51:25;;;;;;;7.82;6.85;;;5.20;81.50;;;;;;4995301;28;20030;-75
2022/11/21 01:54:00;;;;;;;11.32;6.88;;;5.20;81.50;;;;;;4997357;28;20489;-75
2022/11/21 01:56:29;;;;;;;11.23;7.68;;;5.20;81.60;;;;;;4990883;28;20101;-74
2022/11/21 01:58:59;;;;;;;8.63;6.55;;;5.20;81.70;;;;;;5002413;28;20038;-74
2022/11/21 02:01:25;;;;;;;9.98;6.05;;;5.20;81.50;;;;;;4992107;28;20396;-75
2022/11/21 02:03:53;;;;;;;9.40;6.10;;;5.20;81.50;;;;;;4991158;28;20046;-74
2022/11/21 02:06:19;;;;;;;13.23;7.65;;;5.20;81.50;;;;;;4992305;28;20038;-75
2022/11/21 02:08:45;;;;;;;11.10;7.13;;;5.20;81.50;;;;;;4998054;28;20030;-74
2022/11/21 02:11:32;;;;;;;15.23;7.45;;;5.20;81.60;;;;;;5008048;28;20030;-74
2022/11/21 02:13:59;;;;;;;14.57;8.05;;;5.20;81.50;;;;;;4993022;28;20026;-74
2022/11/21 02:16:26;;;;;;;10.40;6.97;;;5.20;81.70;;;;;;4992329;28;20026;-74
2022/11/21 02:18:52;;;;;;;10.70;7.63;;;5.20;81.60;;;;;;4992127;28;20393;-75
2022/11/21 02:21:40;;;;;;;9.10;7.63;;;5.10;81.70;;;;;;4995352;28;20022;-74
2022/11/21 02:24:38;;;;;;;12.15;6.75;;;5.10;81.80;;;;;;5013850;28;20100;-74
2022/11/21 02:27:04;;;;;;;10.95;7.18;;;5.10;81.80;;;;;;5000682;28;20037;-74
2022/11/21 02:29:30;;;;;;;10.98;6.82;;;5.10;81.70;;;;;;5003695;28;20180;-75
2022/11/21 02:32:01;;;;;;;10.35;6.95;;;5.10;81.70;;;;;;4993781;28;20511;-75
2022/11/21 02:34:27;;;;;;;11.13;7.20;;;5.20;81.70;;;;;;5018793;28;20477;-75
2022/11/21 02:36:53;;;;;;;10.40;6.82;;;5.10;81.60;;;;;;4995038;28;20030;-75
2022/11/21 02:39:24;;;;;;;10.25;6.70;;;5.20;81.60;;;;;;4997230;28;20050;-75
2022/11/21 02:42:29;;;;;;;12.65;7.30;;;5.10;81.60;;;;;;4998871;28;20431;-74
2022/11/21 02:45:15;;;;;;;9.40;6.03;;;5.20;81.60;;;;;;4989639;28;20154;-74
2022/11/21 02:47:42;;;;;;;11.18;7.95;;;5.20;81.70;;;;;;5002169;28;20026;-74
2022/11/21 02:50:35;;;;;;;9.55;7.47;;;5.10;81.70;;;;;;4982989;28;20532;-74
2022/11/21 02:53:03;;;;;;;14.27;7.57;;;5.20;81.60;;;;;;4992061;28;20034;-74
2022/11/21 02:55:28;;;;;;;11.20;8.50;;;5.20;81.70;;;;;;5004730;28;20037;-74
2022/11/21 02:57:54;;;;;;;10.18;7.68;;;5.20;81.70;;;;;;5007715;28;20524;-74
2022/11/21 03:00:21;;;;;;;10.18;6.25;;;5.20;81.70;;;;;;4975252;28;20032;-74
2022/11/21 03:02:47;;;;;;;9.88;6.45;;;5.20;81.70;;;;;;4995881;28;20026;-73
2022/11/21 03:05:16;;;;;;;13.20;7.28;;;5.20;81.70;;;;;;5005041;28;20033;-73
2022/11/21 03:07:41;;;;;;;10.38;7.63;;;5.20;81.70;;;;;;4995390;28;20496;-75
2022/11/21 03:10:08;;;;;;;10.88;6.75;;;5.20;81.70;;;;;;5003112;28;20030;-75
2022/11/21 03:12:38;;;;;;;10.55;7.82;;;5.20;81.70;;;;;;5000954;28;20042;-75
2022/11/21 03:15:05;;;;;;;15.68;8.35;;;5.20;81.60;;;;;;4997843;28;20366;-75
2022/11/21 03:17:31;;;;;;;11.02;8.00;;;5.20;81.60;;;;;;5004788;28;20481;-75
2022/11/21 03:19:56;;;;;;;11.00;6.72;;;5.20;81.70;;;;;;4989658;28;20045;-75
2022/11/21 03:22:22;;;;;;;13.23;8.50;;;5.20;81.70;;;;;;5003771;28;20042;-74
2022/11/21 03:24:48;;;;;;;8.65;6.28;;;5.20;81.70;;;;;;4999980;28;20443;-75
2022/11/21 03:27:13;;;;;;;14.15;7.53;;;5.10;81.60;;;;;;5003357;28;20061;-75
2022/11/21 03:29:39;;;;;;;10.13;6.65;;;5.10;81.70;;;;;;4997829;28;20505;-75
2022/11/21 03:32:05;;;;;;;12.15;8.15;;;5.10;81.60;;;;;;4995467;28;20443;-75
2022/11/21 03:34:31;;;;;;;10.52;7.82;;;5.10;81.50;;;;;;4993034;28;20469;-75
2022/11/21 03:36:56;;;;;;;8.23;6.88;;;5.10;81.60;;;;;;4987413;28;20076;-75
2022/11/21 03:39:22;;;;;;;12.93;8.93;;;5.10;81.50;;;;;;4988315;28;20034;-75
2022/11/21 03:41:48;;;;;;;13.48;9.05;;;5.10;81.50;;;;;;4983485;28;20030;-75
2022/11/21 03:44:13;;;;;;;10.80;7.13;;;5.10;81.50;;;;;;5002400;28;20208;-74
2022/11/21 03:46:41;;;;;;;13.07;7.43;;;5.10;81.50;;;;;;5005309;28;20469;-75
2022/11/21 03:49:08;;;;;;;13.38;7.85;;;5.10;82.10;;;;;;4992119;28;20454;-74
2022/11/21 03:51:34;;;;;;;11.93;7.57;;;5.20;81.40;;;;;;5025096;28;20034;-74
2022/11/21 03:54:01;;;;;;;12.95;7.97;;;5.10;81.30;;;;;;5003098;28;20393;-74
2022/11/21 03:56:27;;;;;;;13.32;8.40;;;5.10;81.50;;;;;;4998413;28;20022;-74
2022/11/21 03:58:53;;;;;;;11.25;5.80;;;5.10;81.50;;;;;;5001488;28;20026;-74
2022/11/21 04:01:19;;;;;;;11.63;8.23;;;5.00;81.50;;;;;;4999176;28;20041;-74
2022/11/21 04:03:45;;;;;;;11.02;7.65;;;5.00;81.40;;;;;;4972369;28;20039;-74
2022/11/21 04:06:13;;;;;;;13.88;7.60;;;5.00;81.50;;;;;;5021628;28;20066;-74
2022/11/21 04:08:39;;;;;;;12.52;7.93;;;5.00;81.50;;;;;;4998577;28;20036;-74
2022/11/21 04:11:05;;;;;;;10.98;7.68;;;5.10;81.70;;;;;;4991773;28;20042;-75
2022/11/21 04:13:31;;;;;;;9.45;6.90;;;5.10;81.70;;;;;;4994026;28;20038;-74
2022/11/21 04:15:57;;;;;;;14.48;8.65;;;5.00;81.60;;;;;;4997758;28;20523;-76
2022/11/21 04:18:23;;;;;;;11.02;7.63;;;5.00;81.70;;;;;;5001764;28;20026;-74
2022/11/21 04:20:58;;;;;;;13.15;7.22;;;5.00;81.70;;;;;;4993260;28;20393;-76
2022/11/21 04:23:24;;;;;;;10.63;7.53;;;5.00;81.70;;;;;;4991637;28;20027;-76
2022/11/21 04:25:50;;;;;;;12.73;6.93;;;5.00;81.70;;;;;;4992184;28;20034;-76
2022/11/21 04:28:16;;;;;;;10.18;6.63;;;5.00;81.70;;;;;;4998454;28;20042;-75
2022/11/21 04:30:41;;;;;;;14.15;7.53;;;5.00;81.70;;;;;;4975829;28;20393;-76
2022/11/21 04:33:07;;;;;;;10.48;7.50;;;5.00;81.70;;;;;;5026851;28;20023;-74
2022/11/21 04:35:33;;;;;;;9.70;7.18;;;5.00;81.70;;;;;;4993253;28;20030;-73
2022/11/21 04:37:58;;;;;;;12.27;8.35;;;5.00;81.70;;;;;;4991121;28;20051;-74
2022/11/21 04:40:24;;;;;;;10.80;7.32;;;5.00;81.60;;;;;;4992994;28;20035;-74
2022/11/21 04:42:50;;;;;;;14.00;8.35;;;5.00;81.70;;;;;;4992858;28;20532;-74
2022/11/21 04:45:16;;;;;;;12.70;7.68;;;5.00;81.80;;;;;;4994723;28;20113;-74
2022/11/21 04:47:44;;;;;;;12.93;7.97;;;5.00;81.70;;;;;;5004051;28;20034;-74
2022/11/21 04:50:13;;;;;;;11.70;8.18;;;5.00;81.70;;;;;;4981334;28;20462;-74
2022/11/21 04:52:38;;;;;;;15.60;8.70;;;5.00;81.70;;;;;;5000067;28;20064;-76
2022/11/21 04:55:04;;;;;;;11.38;8.73;;;5.10;81.70;;;;;;4993612;28;20061;-76
2022/11/21 04:57:31;;;;;;;16.45;8.75;;;5.10;81.70;;;;;;4998430;28;20030;-74
2022/11/21 04:59:56;;;;;;;11.57;8.48;;;5.10;81.60;;;;;;5024164;28;20477;-75
2022/11/21 05:02:23;;;;;;;25.88;7.53;;;5.10;81.70;;;;;;5019630;28;20035;-75
2022/11/21 05:04:49;;;;;;;15.70;9.00;;;5.10;81.70;;;;;;5025501;28;20037;-75
2022/11/21 05:07:16;;;;;;;13.68;8.60;;;5.10;81.70;;;;;;5022868;28;20455;-74
2022/11/21 05:09:41;;;;;;;11.40;8.70;;;5.10;81.70;;;;;;4992765;28;20581;-75
2022/11/21 05:14:55;;;;;;;14.70;9.50;;;5.10;81.60;;;;;;4993080;28;20045;-75
2022/11/21 05:17:21;;;;;;;13.38;8.27;;;5.10;82.20;;;;;;4994526;28;20027;-75
2022/11/21 05:19:47;;;;;;;9.77;8.48;;;5.10;81.70;;;;;;4997001;28;20039;-75
2022/11/21 05:22:13;;;;;;;15.02;9.65;;;5.10;81.80;;;;;;4990295;28;20113;-75
2022/11/21 05:24:39;;;;;;;13.35;8.10;;;5.10;81.80;;;;;;4996443;28;20068;-75
2022/11/21 05:27:04;;;;;;;16.67;8.68;;;5.10;81.80;;;;;;4994503;28;20569;-75
2022/11/21 05:29:30;;;;;;;12.43;7.57;;;5.10;81.80;;;;;;5007947;28;20041;-75
2022/11/21 05:31:56;;;;;;;14.68;8.60;;;5.00;81.80;;;;;;4993800;28;20110;-75
2022/11/21 05:34:30;;;;;;;16.15;9.10;;;5.00;81.80;;;;;;4993089;28;20124;-76
2022/11/21 05:36:59;;;;;;;15.90;9.07;;;4.90;82.00;;;;;;4983917;28;20114;-76
2022/11/21 05:39:25;;;;;;;15.88;9.57;;;4.90;82.10;;;;;;5009899;28;20038;-75
2022/11/21 05:41:50;;;;;;;13.45;8.93;;;5.00;82.20;;;;;;5000615;28;20030;-78
2022/11/21 05:44:17;;;;;;;16.63;9.85;;;5.00;82.20;;;;;;4999664;28;20034;-74
2022/11/21 05:46:43;;;;;;;12.20;7.85;;;5.10;82.10;;;;;;5024388;28;20112;-74
2022/11/21 05:49:10;;;;;;;13.73;8.75;;;5.10;82.00;;;;;;4999075;28;20081;-74
2022/11/21 05:51:36;;;;;;;17.42;9.43;;;5.10;81.90;;;;;;4972007;28;20027;-75
2022/11/21 05:54:02;;;;;;;16.65;8.40;;;5.10;81.80;;;;;;4986366;28;20440;-75
2022/11/21 05:56:27;;;;;;;16.10;9.88;;;5.10;81.90;;;;;;4987441;28;20025;-75
2022/11/21 05:58:57;;;;;;;14.38;9.10;;;5.10;81.90;;;;;;5011172;28;20081;-75
2022/11/21 06:04:09;;;;;;;15.77;9.05;;;5.10;81.90;;;;;;4991920;28;20073;-75
2022/11/21 06:06:35;;;;;;;20.92;8.82;;;5.10;82.00;;;;;;5022827;28;20058;-76
2022/11/21 06:09:02;;;;;;;14.32;8.85;;;5.10;82.00;;;;;;5011541;28;20030;-76
2022/11/21 06:11:27;;;;;;;17.92;10.27;;;5.10;82.00;;;;;;5003686;28;20425;-75
2022/11/21 06:13:53;;;;;;;15.00;9.07;;;5.10;81.90;;;;;;4991615;28;20042;-75
2022/11/21 06:16:19;;;;;;;14.80;7.57;;;5.10;82.00;;;;;;5018499;28;20027;-74
2022/11/21 06:18:51;;;;;;;14.75;7.63;;;5.10;81.90;;;;;;4995917;28;20026;-74
2022/11/21 06:21:24;;;;;;;16.63;10.03;;;5.20;82.00;;;;;;4990863;28;20375;-74
2022/11/21 06:23:52;;;;;;;21.65;9.88;;;5.10;82.00;;;;;;4991564;28;20044;-74
2022/11/21 06:26:20;;;;;;;20.38;9.43;;;5.10;82.10;;;;;;4988793;28;20057;-73
2022/11/21 06:28:48;;;;;;;20.88;10.18;;;5.10;82.20;;;;;;4994002;28;20030;-74
2022/11/21 06:31:22;;;;;;;13.93;8.60;;;5.10;82.30;;;;;;4989362;28;20030;-74
2022/11/21 06:33:55;;;;;;;14.90;7.93;;;5.10;82.30;;;;;;4990926;28;20385;-75
2022/11/21 06:36:21;;;;;;;18.73;8.40;;;5.10;82.40;;;;;;5007819;28;20109;-75
2022/11/21 06:38:47;;;;;;;16.17;8.45;;;5.10;82.40;;;;;;4994674;28;20125;-76
2022/11/21 06:41:21;;;;;;;14.93;9.80;;;5.10;82.50;;;;;;4989949;28;20108;-76
2022/11/21 06:43:47;;;;;;;19.88;9.52;;;5.10;82.40;;;;;;4980144;28;20085;-74
2022/11/21 06:46:14;;;;;;;14.40;9.02;;;5.10;82.50;;;;;;4989548;28;20418;-74
2022/11/21 06:48:40;;;;;;;15.82;7.70;;;5.10;82.60;;;;;;4994489;28;20069;-75
2022/11/21 06:51:26;;;;;;;16.42;8.88;;;5.20;82.70;;;;;;4990464;28;20462;-74
2022/11/21 06:53:57;;;;;;;22.77;9.80;;;5.10;82.60;;;;;;4989978;28;20041;-74
2022/11/21 06:56:28;;;;;;;18.27;9.48;;;5.10;82.90;;;;;;4990581;28;20532;-74
2022/11/21 06:58:54;;;;;;;14.35;9.13;;;5.10;82.90;;;;;;4998208;28;20470;-74
2022/11/21 07:01:20;;;;;;;12.32;7.85;;;5.20;82.90;;;;;;4999002;28;20121;-75
2022/11/21 07:03:46;;;;;;;12.57;8.85;;;5.20;82.80;;;;;;4989992;28;20107;-74
2022/11/21 07:06:12;;;;;;;11.50;7.70;;;5.20;82.70;;;;;;4988077;28;20173;-74
2022/11/21 07:08:39;;;;;;;15.80;7.53;;;5.20;82.70;;;;;;4992491;28;20034;-74
2022/11/21 07:11:10;;;;;;;12.23;6.75;;;5.20;82.70;;;;;;5033719;28;20508;-76
2022/11/21 07:13:36;;;;;;;13.77;8.45;;;5.20;82.80;;;;;;5004267;28;20038;-75
2022/11/21 07:16:05;;;;;;;11.57;6.43;;;5.20;82.90;;;;;;4993638;28;20014;-73
2022/11/21 07:18:31;;;;;;;9.52;6.75;;;5.20;82.80;;;;;;4995312;28;20377;-75
2022/11/21 07:21:02;;;;;;;11.50;7.30;;;5.20;82.80;;;;;;4997130;28;20485;-74
2022/11/21 07:23:28;;;;;;;14.23;7.15;;;5.30;82.70;;;;;;4999624;28;20044;-73
2022/11/21 07:25:59;;;;;;;11.50;8.60;;;5.20;83.30;;;;;;5007292;28;20519;-73
2022/11/21 07:28:24;;;;;;;12.45;7.60;;;5.20;82.80;;;;;;5006497;28;20038;-72
2022/11/21 07:30:50;;;;;;;13.18;8.50;;;5.20;83.00;;;;;;4998990;28;20051;-72
2022/11/21 07:33:16;;;;;;;19.90;9.88;;;5.20;82.90;;;;;;4990274;28;20058;-75
2022/11/21 07:35:42;;;;;;;13.10;8.25;;;5.20;82.90;;;;;;5002611;28;20023;-75
2022/11/21 07:38:08;;;;;;;16.65;10.00;;;5.20;83.00;;;;;;4976912;28;20034;-76
2022/11/21 07:40:34;;;;;;;14.45;7.20;;;5.30;82.90;;;;;;4997221;28;20542;-75
2022/11/21 07:43:01;;;;;;;12.15;8.38;;;5.30;83.00;;;;;;4994196;28;20038;-74
2022/11/21 07:45:27;;;;;;;13.15;8.07;;;5.30;83.00;;;;;;4995785;28;20026;-75
2022/11/21 07:48:00;;;;;;;16.85;9.20;;;5.30;82.90;;;;;;4995242;28;20096;-76
2022/11/21 07:50:26;;;;;;;13.73;8.80;;;5.40;82.80;;;;;;4991055;28;20548;-74
2022/11/21 07:52:59;;;;;;;13.75;7.78;;;5.40;82.80;;;;;;4993687;28;20478;-75
2022/11/21 07:55:28;;;;;;;15.88;9.35;;;5.40;82.80;;;;;;4986364;28;20033;-74
2022/11/21 07:58:15;;;;;;;17.42;9.95;;;5.40;82.70;;;;;;4998007;28;20057;-74
2022/11/21 08:00:44;;;;;;;13.23;8.98;;;5.50;82.80;;;;;;4995047;28;20029;-72
2022/11/21 08:03:11;;;;;;;13.40;7.68;;;5.40;82.90;;;;;;4994706;28;20034;-73
2022/11/21 08:05:38;;;;;;;15.52;8.40;;;5.40;82.90;;;;;;4991747;28;20027;-70
2022/11/21 08:08:07;;;;;;;13.95;8.07;;;5.40;82.90;;;;;;4996988;28;20096;-70
2022/11/21 08:10:36;;;;;;;16.10;9.00;;;5.40;82.90;;;;;;4998133;28;20037;-76
2022/11/21 08:13:01;;;;;;;10.45;7.55;;;5.40;82.90;;;;;;5004022;28;20049;-76
2022/11/21 08:15:27;;;;;;;15.73;9.45;;;5.50;82.90;;;;;;4996858;28;20405;-73
2022/11/21 08:17:53;;;;;;;18.40;8.00;;;5.40;82.90;;;;;;5003045;28;20028;-74
2022/11/21 08:20:18;;;;;;;12.63;8.65;;;5.40;82.90;;;;;;5024214;28;20030;-74
2022/11/21 08:22:44;;;;;;;16.42;8.98;;;5.40;83.00;;;;;;4993757;28;20026;-74
2022/11/21 08:25:10;;;;;;;12.48;8.77;;;5.40;83.10;;;;;;5002975;28;20061;-73
2022/11/21 08:27:39;;;;;;;14.23;7.88;;;5.50;83.10;;;;;;5007387;28;20029;-74
2022/11/21 08:30:10;;;;;;;14.30;8.60;;;5.50;83.10;;;;;;4999420;28;20533;-75
2022/11/21 08:32:36;;;;;;;12.02;7.75;;;5.50;83.10;;;;;;4997747;28;20022;-75
2022/11/21 08:35:02;;;;;;;9.57;6.38;;;5.50;83.10;;;;;;5004063;28;20033;-77
2022/11/21 08:37:28;;;;;;;11.02;6.97;;;5.50;83.10;;;;;;4994138;28;20394;-75
2022/11/21 08:39:54;;;;;;;11.10;7.75;;;5.50;83.10;;;;;;4996721;28;20502;-73
2022/11/21 08:42:20;;;;;;;10.48;6.38;;;5.50;83.10;;;;;;4995499;28;20110;-75
2022/11/21 08:44:46;;;;;;;11.05;7.07;;;5.60;83.20;;;;;;4991550;28;20249;-77
2022/11/21 08:47:11;;;;;;;10.73;6.82;;;5.60;83.10;;;;;;5015095;28;20026;-75
2022/11/21 08:49:37;;;;;;;8.95;5.93;;;5.60;83.10;;;;;;5005168;28;20180;-81
2022/11/21 08:52:03;;;;;;;8.73;6.40;;;5.60;83.10;;;;;;4991307;28;20030;-74
2022/11/21 08:54:28;;;;;;;10.07;6.40;;;5.60;83.10;;;;;;4999516;28;20026;-73
2022/11/21 08:56:54;;;;;;;14.32;7.55;;;5.60;83.10;;;;;;4995553;28;20135;-72
2022/11/21 08:59:20;;;;;;;10.18;6.93;;;5.60;83.10;;;;;;4996156;28;20038;-76
2022/11/21 09:01:46;;;;;;;10.70;6.72;;;5.60;83.20;;;;;;5006607;28;20125;-73
2022/11/21 09:04:12;;;;;;;8.20;6.43;;;5.60;83.30;;;;;;4991706;28;20089;-70
2022/11/21 09:06:38;;;;;;;14.52;8.20;;;5.60;83.30;;;;;;5001197;28;20489;-73
2022/11/21 09:09:05;;;;;;;14.40;8.07;;;5.60;83.30;;;;;;4991495;28;20044;-72
2022/11/21 09:11:31;;;;;;;8.90;6.10;;;5.70;83.30;;;;;;4997151;28;20024;-72
2022/11/21 09:19:26;;;;;;;10.13;6.82;;;5.80;83.20;;;;;;4997538;28;20396;-71
2022/11/21 09:21:52;;;;;;;12.77;7.90;;;5.80;83.10;;;;;;4997455;28;20030;-69
2022/11/21 09:24:18;;;;;;;10.63;6.68;;;5.80;83.10;;;;;;4999916;28;20031;-68
2022/11/21 09:26:44;;;;;;;8.65;6.03;;;5.80;83.20;;;;;;4994543;28;20045;-69
2022/11/21 09:29:10;;;;;;;11.55;7.68;;;5.80;83.20;;;;;;4997124;28;20042;-70
2022/11/21 09:31:39;;;;;;;9.52;7.38;;;5.80;83.30;;;;;;4996149;28;20026;-70
2022/11/21 09:34:04;;;;;;;8.98;6.68;;;5.80;83.40;;;;;;4979323;28;20542;-70
2022/11/21 09:36:30;;;;;;;9.40;6.07;;;5.80;83.40;;;;;;4988410;28;20034;-70
2022/11/21 09:38:56;;;;;;;10.00;6.13;;;5.80;83.30;;;;;;4989439;28;20041;-70
2022/11/21 09:41:52;;;;;;;9.00;6.55;;;5.90;83.30;;;;;;4993500;28;20111;-70
2022/11/21 09:44:55;;;;;;;10.25;6.43;;;5.90;83.40;;;;;;4991758;28;20066;-70
2022/11/21 09:47:27;;;;;;;9.48;6.00;;;5.90;83.30;;;;;;4986520;28;20034;-70
2022/11/21 09:50:02;;;;;;;12.50;6.63;;;5.90;83.40;;;;;;4991486;28;20037;-70
2022/11/21 09:52:47;;;;;;;16.15;6.75;;;6.00;83.40;;;;;;4995342;28;20380;-70
2022/11/21 09:55:34;;;;;;;8.35;6.40;;;6.20;83.40;;;;;;4996108;28;20026;-70
2022/11/21 09:58:05;;;;;;;6.78;6.10;;;6.30;83.20;;;;;;4989914;28;20118;-70
2022/11/21 10:00:32;;;;;;;9.38;6.32;;;6.30;83.20;;;;;;4991862;28;20109;-70
2022/11/21 10:03:00;;;;;;;9.77;6.10;;;6.40;83.20;;;;;;4992692;28;20117;-68
2022/11/21 10:05:47;;;;;;;8.95;6.93;;;6.40;83.30;;;;;;4987630;28;20026;-70
2022/11/21 10:08:38;;;;;;;10.00;6.15;;;6.30;83.30;;;;;;4989102;28;20085;-70
2022/11/21 10:11:16;;;;;;;18.05;7.40;;;6.40;83.40;;;;;;4989386;28;20014;-69
2022/11/21 10:14:04;;;;;;;9.75;7.05;;;6.40;83.50;;;;;;4989072;28;20050;-69
2022/11/21 10:16:33;;;;;;;13.30;7.65;;;6.40;83.40;;;;;;4996524;28;20046;-61
2022/11/21 10:19:19;;;;;;;10.40;6.97;;;6.40;83.50;;;;;;4988814;28;20377;-61
2022/11/21 10:22:06;;;;;;;10.50;7.30;;;6.40;83.40;;;;;;4996212;28;20022;-63
2022/11/21 10:24:43;;;;;;;11.02;7.25;;;6.50;83.60;;;;;;4991185;28;20030;-62
2022/11/21 10:27:14;;;;;;;18.60;8.38;;;6.50;83.70;;;;;;5002193;28;20448;-62
2022/11/21 10:29:53;;;;;;;12.85;7.10;;;6.50;83.80;;;;;;4986553;28;20058;-62
2022/11/21 10:32:26;;;;;;;12.25;7.72;;;6.60;83.70;;;;;;5006438;28;20056;-63
2022/11/21 10:34:58;;;;;;;9.65;7.10;;;6.50;83.70;;;;;;4994427;28;20034;-62
2022/11/21 10:37:46;;;;;;;21.25;7.78;;;6.60;83.80;;;;;;4993081;28;20592;-61
2022/11/21 10:40:38;;;;;;;7.68;5.78;;;6.60;83.70;;;;;;4985528;28;20034;-64
2022/11/21 10:46:03;;;;;;;15.63;7.95;;;6.60;83.70;;;;;;4992032;28;20115;-63
2022/11/21 10:48:29;;;;;;;11.10;6.38;;;6.70;84.40;;;;;;5002583;28;20038;-62
2022/11/21 10:51:37;;;;;;;9.77;6.32;;;6.70;83.70;;;;;;5004604;28;20034;-62
2022/11/21 10:56:53;;;;;;;10.10;7.75;;;6.60;83.80;;;;;;4999096;28;20105;-63
2022/11/21 10:59:28;;;;;;;14.32;7.00;;;6.70;83.90;;;;;;4999344;28;20054;-62
2022/11/21 11:02:13;;;;;;;15.55;8.93;;;6.70;83.90;;;;;;4998594;28;20053;-62
2022/11/21 11:04:39;;;;;;;12.13;7.40;;;6.70;84.00;;;;;;4997880;28;20124;-62
2022/11/21 11:07:26;;;;;;;10.02;6.80;;;6.80;84.00;;;;;;5002250;28;20034;-62
2022/11/21 11:09:57;;;;;;;16.88;7.30;;;6.90;83.80;;;;;;4997888;28;20481;-62
2022/11/21 11:15:24;;;;;;;10.88;6.82;;;6.90;83.90;;;;;;4997036;28;20065;-62
2022/11/21 11:17:58;;;;;;;10.52;7.28;;;7.00;83.90;;;;;;5000851;28;20481;-62
2022/11/21 11:20:37;;;;;;;17.63;7.85;;;7.00;83.80;;;;;;5005626;28;20060;-61
2022/11/21 11:23:26;;;;;;;12.05;8.02;;;7.10;83.80;;;;;;5012603;28;20093;-61
2022/11/21 11:25:56;;;;;;;12.95;8.13;;;7.10;83.80;;;;;;4996668;28;20026;-61
2022/11/21 11:28:23;;;;;;;10.77;6.88;;;7.10;83.90;;;;;;4998724;28;20440;-65
2022/11/21 11:30:54;;;;;;;12.23;7.75;;;7.10;83.90;;;;;;5002727;28;20026;-64
2022/11/21 11:33:40;;;;;;;16.98;8.95;;;7.20;83.90;;;;;;4997637;28;20034;-65
2022/11/21 11:36:29;;;;;;;11.77;7.55;;;7.20;83.80;;;;;;4993466;28;20049;-65
2022/11/21 11:38:57;;;;;;;10.32;7.03;;;7.30;83.80;;;;;;5001663;28;20106;-65
2022/11/21 11:48:09;;;;;;;10.80;6.10;;;7.40;83.80;;;;;;5006571;28;20033;-65
2022/11/21 11:50:43;;;;;;;12.23;7.38;;;7.50;83.60;;;;;;4998325;28;20026;-62
2022/11/21 11:53:38;;;;;;;13.07;8.60;;;7.50;83.50;;;;;;4999140;28;20367;-62
2022/11/21 11:56:28;;;;;;;13.25;6.72;;;7.60;83.40;;;;;;5007240;28;20488;-62
2022/11/21 11:59:17;;;;;;;13.95;8.15;;;7.70;83.40;;;;;;5001877;28;20154;-62
2022/11/21 12:02:01;;;;;;;18.42;9.30;;;7.70;83.50;;;;;;5000127;28;20025;-62
2022/11/21 12:05:03;;;;;;;11.63;7.15;;;7.80;83.60;;;;;;4996760;28;20033;-63
2022/11/21 12:07:46;;;;;;;15.18;8.15;;;7.80;83.40;;;;;;5002164;28;20170;-62
2022/11/21 12:10:28;;;;;;;;;;;7.80;83.50;;;;;;5011412;28;20026;-65
2022/11/21 12:13:03;;;;;;;11.63;7.47;;;7.80;83.60;;;;;;5010615;28;20276;-65
2022/11/21 12:15:48;;;;;;;11.82;7.40;;;7.80;83.60;;;;;;4998435;28;20500;-65
2022/11/21 12:18:14;;;;;;;8.55;6.78;;;7.90;83.60;;;;;;5002299;28;20038;-62
2022/11/21 12:21:01;;;;;;;12.07;7.20;;;7.90;83.50;;;;;;4990126;28;20370;-62
2022/11/21 12:23:31;;;;;;;15.65;9.10;;;8.00;83.30;;;;;;4997537;28;20041;-62
2022/11/21 12:26:15;;;;;;;11.45;8.85;;;8.10;83.40;;;;;;4990647;28;20528;-65
2022/11/21 12:29:08;;;;;;;13.57;8.20;;;8.20;83.40;;;;;;4993575;28;20078;-62
2022/11/21 12:32:14;;;;;;;11.00;7.53;;;8.20;83.30;;;;;;4990412;28;20030;-62
2022/11/21 12:34:58;;;;;;;15.02;8.02;;;8.30;83.30;;;;;;4999498;28;20033;-62
2022/11/21 12:37:48;;;;;;;11.15;7.50;;;8.30;83.30;;;;;;4992494;28;20076;-62
2022/11/21 12:40:32;;;;;;;10.80;6.88;;;8.30;83.20;;;;;;5027091;28;20504;-62
2022/11/21 12:43:04;;;;;;;11.68;7.85;;;8.30;83.20;;;;;;4999389;28;20041;-62
2022/11/21 12:45:34;;;;;;;12.90;7.83;;;8.40;83.30;;;;;;4997730;28;20026;-62
2022/11/21 12:54:32;;;;;;;13.70;8.55;;;8.50;83.20;;;;;;4991692;28;20070;-62
2022/11/21 12:57:13;;;;;;;10.48;7.68;;;8.50;83.40;;;;;;4993417;28;20149;-62
2022/11/21 13:00:06;;;;;;;13.63;8.02;;;8.60;83.40;;;;;;4998855;28;20038;-62
2022/11/21 13:02:52;;;;;;;;;;;8.60;83.30;;;;;;4991613;28;20035;-62
2022/11/21 13:05:26;;;;;;;13.30;7.47;;;8.60;83.40;;;;;;4991002;28;19914;-65
2022/11/21 13:07:59;;;;;;;10.05;8.13;;;8.60;83.40;;;;;;4993581;28;20029;-65
2022/11/21 13:10:27;;;;;;;12.65;6.90;;;8.60;83.30;;;;;;4990331;28;20053;-65
2022/11/21 13:13:07;;;;;;;9.40;7.07;;;8.70;83.90;;;;;;4999611;28;20068;-65
2022/11/21 13:15:40;;;;;;;14.50;6.95;;;8.70;83.30;;;;;;4988918;28;20030;-65
2022/11/21 13:18:22;;;;;;;14.00;6.78;;;8.70;83.40;;;;;;4990226;28;20030;-65
2022/11/21 13:20:49;;;;;;;9.77;6.47;;;8.80;83.40;;;;;;4994262;28;20097;-62
2022/11/21 13:23:37;;;;;;;8.73;5.00;;;8.70;83.40;;;;;;4987307;28;20397;-63
2022/11/21 13:26:24;;;;;;;7.53;5.00;;;8.70;83.50;;;;;;4995323;28;20088;-63
2022/11/21 13:29:05;;;;;;;7.15;5.25;;;8.80;83.70;;;;;;4990752;28;20393;-65
2022/11/21 13:31:35;;;;;;;6.30;4.55;;;8.80;83.70;;;;;;4984662;28;20037;-63
2022/11/21 13:34:02;;;;;;;9.85;5.38;;;8.80;83.60;;;;;;4993577;28;20054;-61
2022/11/21 13:36:27;;;;;;;6.32;4.82;;;8.90;83.50;;;;;;4989747;28;20058;-61
2022/11/21 13:38:53;;;;;;;13.13;5.13;;;8.90;83.50;;;;;;4994061;28;20457;-61